Time;durP1;ratioP1;P1;durP2;ratioP2;P2;SDS_P1;SDS_P2;PMS_P1;PMS_P2;Temp;Humidity;BMP_temperature;BMP_pressure;BME280_temperature;BME280_humidity;BME280_pressure;Samples;Min_cycle;Max_cycle;Signal;HPM_P1;HPM_P2
2022/09/18 00:00:06;;;;;;;5.80;0.82;;;14.00;93.90;;;;;;5075700;28;20031;-76
2022/09/18 00:02:31;;;;;;;11.07;1.60;;;13.90;94.10;;;;;;5075884;28;20108;-76
2022/09/18 00:04:57;;;;;;;10.10;1.25;;;14.00;94.10;;;;;;5075380;28;20111;-76
2022/09/18 00:07:23;;;;;;;9.50;1.17;;;13.90;94.10;;;;;;5075865;28;20036;-76
2022/09/18 00:09:48;;;;;;;7.97;1.48;;;13.90;94.20;;;;;;5075582;28;20494;-76
2022/09/18 00:12:14;;;;;;;10.23;1.33;;;13.90;94.30;;;;;;5075367;28;20515;-76
2022/09/18 00:14:39;;;;;;;8.95;1.20;;;13.90;94.40;;;;;;5075431;28;20031;-76
2022/09/18 00:17:05;;;;;;;10.02;0.75;;;13.80;94.40;;;;;;5075696;28;20423;-77
2022/09/18 00:19:30;;;;;;;6.72;0.98;;;13.80;94.40;;;;;;5075482;28;20024;-76
2022/09/18 00:21:56;;;;;;;8.23;1.05;;;13.90;94.50;;;;;;5074986;28;20424;-76
2022/09/18 00:24:23;;;;;;;10.00;1.38;;;13.90;94.50;;;;;;5075347;28;20074;-76
2022/09/18 00:26:49;;;;;;;7.90;0.82;;;13.90;94.60;;;;;;5075183;28;20036;-75
2022/09/18 00:29:16;;;;;;;10.18;0.80;;;14.00;94.50;;;;;;5075431;28;20433;-77
2022/09/18 00:31:43;;;;;;;10.07;1.10;;;14.00;94.50;;;;;;5074824;28;20078;-76
2022/09/18 00:34:13;;;;;;;9.02;1.00;;;13.90;94.80;;;;;;5074954;28;20090;-77
2022/09/18 00:36:39;;;;;;;9.45;1.10;;;13.90;94.60;;;;;;5075211;28;20052;-77
2022/09/18 00:39:07;;;;;;;12.18;1.80;;;14.00;94.70;;;;;;5075290;28;20024;-76
2022/09/18 00:41:35;;;;;;;11.50;1.38;;;14.00;94.70;;;;;;5074545;28;20536;-76
2022/09/18 00:44:23;;;;;;;9.00;0.80;;;14.00;94.70;;;;;;5075145;28;20033;-76
2022/09/18 00:46:49;;;;;;;7.78;0.80;;;14.00;94.70;;;;;;5075112;28;20017;-76
2022/09/18 00:49:20;;;;;;;8.85;1.50;;;14.00;94.80;;;;;;5075086;28;20077;-76
2022/09/18 00:51:48;;;;;;;7.68;1.05;;;14.00;94.80;;;;;;5074965;28;20024;-76
2022/09/18 00:54:28;;;;;;;7.85;1.30;;;14.00;95.10;;;;;;5074812;28;20158;-76
2022/09/18 00:56:59;;;;;;;8.68;0.88;;;13.90;95.00;;;;;;5074855;28;20420;-76
2022/09/18 00:59:28;;;;;;;8.40;1.58;;;13.90;95.10;;;;;;5074811;28;20032;-76
2022/09/18 01:01:55;;;;;;;14.27;0.90;;;13.90;95.10;;;;;;5074290;28;20118;-76
2022/09/18 01:04:21;;;;;;;8.35;1.20;;;14.00;95.10;;;;;;5074432;28;20055;-76
2022/09/18 01:07:00;;;;;;;7.97;0.90;;;14.00;95.20;;;;;;5074558;28;20031;-76
2022/09/18 01:09:34;;;;;;;6.18;1.00;;;13.90;95.20;;;;;;5074478;28;20121;-76
2022/09/18 01:12:25;;;;;;;9.57;0.73;;;13.90;95.30;;;;;;5074620;28;20405;-77
2022/09/18 01:14:53;;;;;;;7.95;0.98;;;13.90;95.20;;;;;;5074270;28;20050;-77
2022/09/18 01:17:40;;;;;;;14.10;1.23;;;13.90;95.30;;;;;;5074044;28;20048;-76
2022/09/18 01:20:33;;;;;;;9.30;1.20;;;13.90;95.30;;;;;;5074018;28;20036;-76
2022/09/18 01:23:11;;;;;;;6.32;0.63;;;13.90;95.40;;;;;;5074131;28;20039;-76
2022/09/18 01:26:01;;;;;;;10.13;0.98;;;13.90;95.40;;;;;;5074352;28;20044;-76
2022/09/18 01:28:43;;;;;;;8.32;1.00;;;13.90;95.50;;;;;;5073784;28;20052;-76
2022/09/18 01:31:39;;;;;;;16.35;1.52;;;13.90;95.50;;;;;;5074249;28;20031;-77
2022/09/18 01:34:24;;;;;;;9.63;1.10;;;13.90;95.50;;;;;;5073740;28;20035;-76
2022/09/18 01:37:10;;;;;;;11.27;1.00;;;13.90;95.50;;;;;;5073928;28;20039;-76
2022/09/18 01:39:45;;;;;;;7.30;0.90;;;13.80;95.60;;;;;;5073752;28;20472;-76
2022/09/18 01:42:13;;;;;;;6.45;0.70;;;13.80;95.70;;;;;;5073713;28;20436;-76
2022/09/18 01:44:43;;;;;;;8.43;0.90;;;13.80;95.80;;;;;;5073149;28;20020;-76
2022/09/18 01:47:12;;;;;;;7.45;1.23;;;13.70;95.80;;;;;;5073571;28;20086;-76
2022/09/18 01:49:43;;;;;;;6.10;0.70;;;13.70;95.90;;;;;;5073890;28;20020;-76
2022/09/18 01:52:19;;;;;;;9.10;1.27;;;13.70;95.90;;;;;;5073681;28;20043;-76
2022/09/18 01:54:49;;;;;;;5.93;0.60;;;13.60;95.90;;;;;;5073555;28;20430;-76
2022/09/18 01:57:26;;;;;;;9.95;0.88;;;13.70;95.90;;;;;;5073459;28;20028;-76
2022/09/18 02:00:01;;;;;;;7.65;0.60;;;13.70;96.00;;;;;;5073498;28;20491;-76
2022/09/18 02:03:00;;;;;;;7.65;0.90;;;13.60;96.10;;;;;;5073433;28;20045;-76
2022/09/18 02:05:32;;;;;;;6.93;0.57;;;13.60;96.20;;;;;;5071312;28;20108;-76
2022/09/18 02:08:12;;;;;;;6.07;0.80;;;13.60;96.30;;;;;;5073385;28;20028;-76
2022/09/18 02:10:45;;;;;;;6.13;0.95;;;13.70;96.40;;;;;;5073584;28;20063;-76
2022/09/18 02:13:13;;;;;;;;;;;13.70;96.40;;;;;;5073870;28;20100;-76
2022/09/18 02:15:42;;;;;;;7.15;0.85;;;13.70;96.40;;;;;;5073215;28;19904;-76
2022/09/18 02:18:13;;;;;;;6.18;0.70;;;13.70;96.40;;;;;;5073228;28;20388;-76
2022/09/18 02:20:42;;;;;;;7.63;0.98;;;13.80;96.40;;;;;;5073289;28;20028;-76
2022/09/18 02:23:08;;;;;;;4.63;0.60;;;13.80;96.40;;;;;;5073093;28;20479;-76
2022/09/18 02:25:56;;;;;;;7.63;0.85;;;13.80;96.50;;;;;;5073205;28;20055;-76
2022/09/18 02:28:24;;;;;;;9.13;0.88;;;13.80;96.40;;;;;;5072677;28;20101;-76
2022/09/18 02:30:50;;;;;;;6.15;0.70;;;13.80;96.50;;;;;;5073238;28;20020;-76
2022/09/18 02:33:23;;;;;;;7.13;0.40;;;13.80;96.60;;;;;;5073375;28;20468;-76
2022/09/18 02:36:03;;;;;;;7.57;0.70;;;13.80;96.70;;;;;;5073131;28;20162;-76
2022/09/18 02:39:17;;;;;;;7.68;0.73;;;13.70;96.80;;;;;;5072748;28;20072;-76
2022/09/18 02:42:20;;;;;;;8.30;1.10;;;13.60;96.90;;;;;;5072840;28;20075;-76
2022/09/18 02:44:49;;;;;;;10.13;0.88;;;13.70;97.00;;;;;;5072878;28;20476;-76
2022/09/18 02:47:14;;;;;;;6.65;0.75;;;13.70;97.10;;;;;;5073098;28;20468;-76
2022/09/18 02:49:46;;;;;;;6.85;0.88;;;13.70;97.10;;;;;;5072761;28;20104;-76
2022/09/18 02:52:26;;;;;;;5.80;0.50;;;13.60;97.10;;;;;;5073069;28;20024;-76
2022/09/18 02:55:04;;;;;;;5.82;1.20;;;13.70;97.20;;;;;;5072953;28;20027;-76
2022/09/18 02:57:37;;;;;;;4.53;0.50;;;13.70;97.20;;;;;;5075645;28;20036;-76
2022/09/18 03:00:05;;;;;;;5.47;0.55;;;13.70;97.20;;;;;;5076818;28;20069;-76
2022/09/18 03:02:30;;;;;;;9.43;0.80;;;13.70;97.20;;;;;;5076660;28;20063;-76
2022/09/18 03:04:56;;;;;;;7.13;0.90;;;13.70;97.20;;;;;;5076954;28;20483;-76
2022/09/18 03:07:22;;;;;;;8.77;1.20;;;13.70;97.30;;;;;;5076661;28;20029;-76
2022/09/18 03:09:48;;;;;;;6.78;0.73;;;13.70;97.20;;;;;;5076546;28;20103;-76
2022/09/18 03:12:13;;;;;;;7.53;0.75;;;13.60;97.30;;;;;;5076963;28;20470;-76
2022/09/18 03:14:39;;;;;;;8.65;0.50;;;13.70;97.40;;;;;;5076533;28;20025;-76
2022/09/18 03:17:05;;;;;;;10.93;1.35;;;13.70;97.40;;;;;;5076563;28;20029;-76
2022/09/18 03:19:30;;;;;;;6.53;0.50;;;13.70;97.40;;;;;;5076492;28;20411;-76
2022/09/18 03:21:56;;;;;;;7.35;0.80;;;13.70;97.40;;;;;;5076267;28;20072;-76
2022/09/18 03:24:24;;;;;;;8.52;0.80;;;13.70;97.50;;;;;;5076335;28;20028;-76
2022/09/18 03:26:51;;;;;;;6.80;0.55;;;13.70;97.50;;;;;;5076371;28;20028;-76
2022/09/18 03:29:17;;;;;;;8.55;1.42;;;13.70;97.50;;;;;;5076209;28;20032;-76
2022/09/18 03:31:43;;;;;;;8.13;1.02;;;13.60;97.60;;;;;;5076383;28;20127;-76
2022/09/18 03:34:08;;;;;;;7.50;0.77;;;13.60;97.60;;;;;;5076521;28;20475;-76
2022/09/18 03:36:34;;;;;;;7.10;0.63;;;13.60;97.60;;;;;;5076066;28;20025;-76
2022/09/18 03:39:00;;;;;;;6.57;0.65;;;13.60;97.60;;;;;;5076209;28;20456;-76
2022/09/18 03:41:25;;;;;;;6.95;0.50;;;13.60;97.60;;;;;;5076215;28;20029;-76
2022/09/18 03:43:51;;;;;;;7.50;0.73;;;13.60;97.60;;;;;;5076373;28;20021;-76
2022/09/18 03:46:23;;;;;;;6.53;0.57;;;13.60;97.50;;;;;;5075834;28;20468;-76
2022/09/18 03:48:52;;;;;;;7.43;0.70;;;13.60;97.50;;;;;;5075971;28;20031;-76
2022/09/18 03:51:18;;;;;;;6.70;0.80;;;13.60;97.50;;;;;;5075607;28;20557;-76
2022/09/18 03:53:45;;;;;;;8.82;0.60;;;13.60;97.50;;;;;;5075737;28;20024;-76
2022/09/18 03:56:12;;;;;;;5.30;0.50;;;13.60;97.40;;;;;;5076045;28;20032;-77
2022/09/18 03:58:38;;;;;;;6.22;0.50;;;13.60;97.40;;;;;;5076076;28;20025;-76
2022/09/18 04:01:05;;;;;;;4.07;0.40;;;13.60;97.40;;;;;;5075766;28;20099;-76
2022/09/18 04:03:32;;;;;;;5.72;0.40;;;13.60;97.50;;;;;;5075461;28;20447;-77
2022/09/18 04:05:57;;;;;;;3.15;0.40;;;13.60;97.40;;;;;;5075890;28;20104;-76
2022/09/18 04:08:23;;;;;;;7.68;0.88;;;13.60;97.40;;;;;;5074706;28;20470;-76
2022/09/18 04:10:49;;;;;;;5.55;0.40;;;13.60;97.40;;;;;;5075798;28;20028;-76
2022/09/18 04:13:15;;;;;;;5.60;0.40;;;13.50;97.50;;;;;;5075678;28;20028;-76
2022/09/18 04:15:43;;;;;;;6.13;0.30;;;13.60;97.60;;;;;;5075252;28;20017;-76
2022/09/18 04:18:09;;;;;;;6.13;0.73;;;13.60;97.60;;;;;;5075424;28;20060;-76
2022/09/18 04:20:35;;;;;;;6.93;1.45;;;13.50;97.70;;;;;;5075315;28;20372;-76
2022/09/18 04:23:01;;;;;;;5.50;0.55;;;13.50;97.70;;;;;;5075154;28;20036;-76
2022/09/18 04:25:26;;;;;;;5.63;0.45;;;13.40;97.80;;;;;;5075560;28;20028;-76
2022/09/18 04:27:52;;;;;;;7.43;0.40;;;13.40;97.90;;;;;;5075025;28;20052;-76
2022/09/18 04:30:18;;;;;;;6.57;0.45;;;13.40;97.90;;;;;;5075198;28;20036;-76
2022/09/18 04:32:44;;;;;;;5.10;0.57;;;13.40;98.00;;;;;;5075092;28;20533;-77
2022/09/18 04:35:10;;;;;;;5.68;1.02;;;13.40;98.00;;;;;;5075315;28;20082;-76
2022/09/18 04:37:36;;;;;;;6.57;0.60;;;13.40;98.00;;;;;;5074963;28;20025;-76
2022/09/18 04:40:02;;;;;;;8.18;0.80;;;13.40;98.00;;;;;;5075285;28;20484;-76
2022/09/18 04:42:28;;;;;;;5.55;0.40;;;13.40;98.10;;;;;;5075195;28;20033;-76
2022/09/18 04:44:53;;;;;;;5.90;0.73;;;13.40;98.20;;;;;;5074631;28;20020;-76
2022/09/18 04:47:19;;;;;;;6.85;0.70;;;13.30;98.20;;;;;;5074969;28;20082;-76
2022/09/18 04:49:44;;;;;;;4.97;0.30;;;13.30;98.20;;;;;;5074910;28;20481;-76
2022/09/18 04:52:10;;;;;;;5.55;1.00;;;13.30;98.40;;;;;;5075010;28;20396;-76
2022/09/18 04:54:36;;;;;;;6.28;0.43;;;13.30;98.40;;;;;;5074943;28;20016;-76
2022/09/18 04:57:02;;;;;;;5.20;0.38;;;13.30;98.50;;;;;;5074915;28;20476;-76
2022/09/18 04:59:28;;;;;;;7.68;0.50;;;13.30;98.60;;;;;;5074405;28;20059;-76
2022/09/18 05:01:53;;;;;;;5.38;0.65;;;13.30;98.80;;;;;;5074816;28;20367;-76
2022/09/18 05:04:19;;;;;;;4.40;0.30;;;13.30;98.50;;;;;;5074444;28;20028;-76
2022/09/18 05:06:44;;;;;;;11.38;0.95;;;13.20;98.60;;;;;;5074690;28;20099;-76
2022/09/18 05:09:10;;;;;;;3.33;0.35;;;13.30;98.70;;;;;;5074382;28;20020;-76
2022/09/18 05:11:36;;;;;;;4.88;0.70;;;13.20;98.60;;;;;;5074381;28;20021;-76
2022/09/18 05:14:01;;;;;;;5.35;0.73;;;13.30;98.60;;;;;;5074553;28;20033;-76
2022/09/18 05:16:27;;;;;;;5.93;0.30;;;13.30;98.60;;;;;;5074344;28;20036;-76
2022/09/18 05:18:52;;;;;;;7.35;0.43;;;13.30;98.50;;;;;;5074140;28;20064;-76
2022/09/18 05:21:19;;;;;;;4.60;0.28;;;13.30;98.40;;;;;;5073272;28;20025;-76
2022/09/18 05:23:45;;;;;;;6.20;0.50;;;13.30;98.50;;;;;;5074424;28;20109;-76
2022/09/18 05:26:11;;;;;;;5.60;0.30;;;13.30;98.50;;;;;;5074247;28;20035;-76
2022/09/18 05:28:37;;;;;;;9.60;0.57;;;13.20;98.50;;;;;;5073714;28;20052;-77
2022/09/18 05:31:03;;;;;;;6.22;0.93;;;13.20;98.60;;;;;;5073935;28;20016;-76
2022/09/18 05:33:29;;;;;;;6.32;0.50;;;13.20;98.60;;;;;;5073963;28;20039;-76
2022/09/18 05:35:56;;;;;;;7.82;1.30;;;13.10;98.60;;;;;;5074185;28;20048;-76
2022/09/18 05:38:25;;;;;;;2.55;0.22;;;13.10;98.70;;;;;;5074056;28;20055;-76
2022/09/18 05:40:51;;;;;;;4.50;0.40;;;13.10;98.70;;;;;;5073677;28;20402;-76
2022/09/18 05:43:17;;;;;;;4.95;0.35;;;13.10;98.80;;;;;;5074048;28;20024;-76
2022/09/18 05:45:43;;;;;;;7.40;0.60;;;13.20;98.70;;;;;;5073656;28;20025;-76
2022/09/18 05:48:11;;;;;;;4.03;0.35;;;13.10;98.60;;;;;;5073627;28;20414;-76
2022/09/18 05:50:36;;;;;;;6.18;0.47;;;13.10;98.60;;;;;;5073729;28;20035;-76
2022/09/18 05:53:03;;;;;;;3.25;0.20;;;13.10;98.60;;;;;;5073623;28;20476;-76
2022/09/18 05:55:30;;;;;;;3.50;0.30;;;13.10;98.50;;;;;;5073616;28;20020;-76
2022/09/18 05:57:56;;;;;;;5.38;0.47;;;13.10;98.50;;;;;;5073868;28;20477;-76
2022/09/18 06:00:23;;;;;;;4.57;0.40;;;13.10;98.40;;;;;;5073427;28;20028;-76
2022/09/18 06:02:59;;;;;;;2.88;0.20;;;13.10;98.50;;;;;;5072971;28;20028;-76
2022/09/18 06:05:26;;;;;;;4.97;0.50;;;13.20;98.40;;;;;;5073762;28;20352;-76
2022/09/18 06:07:52;;;;;;;2.67;0.17;;;13.20;98.30;;;;;;5073519;28;20024;-76
2022/09/18 06:10:19;;;;;;;2.67;0.20;;;13.20;98.30;;;;;;5073177;28;20107;-76
2022/09/18 06:12:45;;;;;;;3.95;0.30;;;13.30;98.30;;;;;;5073259;28;20111;-76
2022/09/18 06:15:12;;;;;;;2.80;0.25;;;13.30;98.20;;;;;;5073339;28;20024;-76
2022/09/18 06:17:39;;;;;;;4.85;0.20;;;13.30;98.20;;;;;;5073548;28;20425;-76
2022/09/18 06:20:07;;;;;;;5.72;0.40;;;13.30;98.20;;;;;;5073278;28;20054;-74
2022/09/18 06:22:32;;;;;;;4.63;0.30;;;13.20;98.10;;;;;;5072828;28;20119;-76
2022/09/18 06:24:58;;;;;;;4.30;0.25;;;13.30;98.10;;;;;;5073225;28;20052;-76
2022/09/18 06:27:24;;;;;;;3.55;0.20;;;13.20;98.20;;;;;;5073222;28;20075;-76
2022/09/18 06:29:49;;;;;;;5.80;0.22;;;13.30;98.20;;;;;;5073131;28;20032;-76
2022/09/18 06:32:15;;;;;;;3.17;0.22;;;13.30;98.20;;;;;;5072973;28;20516;-76
2022/09/18 06:34:41;;;;;;;4.22;0.20;;;13.30;98.20;;;;;;5073438;28;20368;-77
2022/09/18 06:37:10;;;;;;;3.20;0.30;;;13.30;98.10;;;;;;5073148;28;20029;-76
2022/09/18 06:39:36;;;;;;;5.00;0.50;;;13.30;98.10;;;;;;5073146;28;20082;-76
2022/09/18 06:42:02;;;;;;;3.63;0.30;;;13.30;98.20;;;;;;5072972;28;20460;-76
2022/09/18 06:44:27;;;;;;;5.80;0.20;;;13.30;98.10;;;;;;5073270;28;20040;-76
2022/09/18 06:46:53;;;;;;;4.53;0.47;;;13.20;98.20;;;;;;5073096;28;20346;-76
2022/09/18 06:49:18;;;;;;;3.95;0.20;;;13.20;98.20;;;;;;5073211;28;20047;-76
2022/09/18 06:51:47;;;;;;;4.57;0.45;;;13.20;98.40;;;;;;5073291;28;20111;-76
2022/09/18 06:54:16;;;;;;;5.43;0.45;;;13.30;98.40;;;;;;5072795;28;20056;-76
2022/09/18 06:56:42;;;;;;;4.05;0.75;;;13.30;98.40;;;;;;5072953;28;20039;-76
2022/09/18 06:59:08;;;;;;;6.10;0.40;;;13.40;98.50;;;;;;5072774;28;20500;-76
2022/09/18 07:01:33;;;;;;;2.22;0.20;;;13.40;98.40;;;;;;5073098;28;20043;-76
2022/09/18 07:03:59;;;;;;;5.50;0.38;;;13.40;98.40;;;;;;5072868;28;20016;-76
2022/09/18 07:06:25;;;;;;;2.92;0.30;;;13.50;98.30;;;;;;5072757;28;20039;-76
2022/09/18 07:08:51;;;;;;;2.65;0.20;;;13.50;98.20;;;;;;5072819;28;20036;-76
2022/09/18 07:11:16;;;;;;;2.58;0.30;;;13.50;98.20;;;;;;5072967;28;20051;-76
2022/09/18 07:13:42;;;;;;;2.83;0.20;;;13.50;98.10;;;;;;5072404;28;20029;-76
2022/09/18 07:16:08;;;;;;;3.83;0.25;;;13.40;98.00;;;;;;5072692;28;20028;-76
2022/09/18 07:18:34;;;;;;;2.10;0.10;;;13.50;98.10;;;;;;5072788;28;20067;-76
2022/09/18 07:21:00;;;;;;;1.83;0.20;;;13.50;97.90;;;;;;5072499;28;20457;-76
2022/09/18 07:23:28;;;;;;;2.55;0.30;;;13.50;97.90;;;;;;5072912;28;20466;-76
2022/09/18 07:25:53;;;;;;;5.38;0.20;;;13.60;97.90;;;;;;5072504;28;20025;-76
2022/09/18 07:28:19;;;;;;;3.08;0.45;;;13.60;97.80;;;;;;5072142;28;20059;-76
2022/09/18 07:30:45;;;;;;;4.38;0.30;;;13.60;97.80;;;;;;5072674;28;20448;-76
2022/09/18 07:33:11;;;;;;;2.95;0.30;;;13.60;97.80;;;;;;5072739;28;20388;-76
2022/09/18 07:35:37;;;;;;;6.43;0.40;;;13.60;97.80;;;;;;5072789;28;20027;-76
2022/09/18 07:38:06;;;;;;;4.60;0.30;;;13.60;98.00;;;;;;5072409;28;20468;-76
2022/09/18 07:40:33;;;;;;;7.28;1.02;;;13.60;97.90;;;;;;5072172;28;20032;-76
2022/09/18 07:43:09;;;;;;;5.35;0.35;;;13.60;97.80;;;;;;5072330;28;20112;-76
2022/09/18 07:45:35;;;;;;;7.88;0.52;;;13.60;97.90;;;;;;5076243;28;20025;-76
2022/09/18 07:48:06;;;;;;;5.05;0.40;;;13.70;97.90;;;;;;5076292;28;20035;-76
2022/09/18 07:50:32;;;;;;;4.68;0.40;;;13.70;98.00;;;;;;5075698;28;20062;-76
2022/09/18 07:53:00;;;;;;;4.95;0.57;;;13.80;97.90;;;;;;5075845;28;20025;-76
2022/09/18 07:55:27;;;;;;;3.67;0.55;;;13.80;98.00;;;;;;5075779;28;20111;-76
2022/09/18 07:57:54;;;;;;;4.47;0.57;;;13.80;98.00;;;;;;5076055;28;20476;-76
2022/09/18 08:00:20;;;;;;;3.38;0.30;;;13.90;98.00;;;;;;5075905;28;20035;-77
2022/09/18 08:02:46;;;;;;;6.63;0.45;;;14.00;98.00;;;;;;5075575;28;20119;-74
2022/09/18 08:05:12;;;;;;;5.32;0.30;;;14.00;97.90;;;;;;5075388;28;20023;-77
2022/09/18 08:07:37;;;;;;;4.72;0.28;;;14.00;97.90;;;;;;5075730;28;20035;-74
2022/09/18 08:10:04;;;;;;;3.35;0.40;;;14.00;98.00;;;;;;5075749;28;20028;-74
2022/09/18 08:12:30;;;;;;;5.80;0.77;;;14.00;98.00;;;;;;5075829;28;20056;-75
2022/09/18 08:14:57;;;;;;;2.38;0.35;;;14.10;98.10;;;;;;5075555;28;20385;-75
2022/09/18 08:17:22;;;;;;;4.72;0.30;;;14.10;98.00;;;;;;5075283;28;20032;-75
2022/09/18 08:19:48;;;;;;;3.95;0.20;;;14.00;98.00;;;;;;5075368;28;20506;-76
2022/09/18 08:22:13;;;;;;;4.18;0.40;;;14.00;98.00;;;;;;5075429;28;20081;-75
2022/09/18 08:24:39;;;;;;;4.15;0.30;;;14.00;98.10;;;;;;5075647;28;20066;-75
2022/09/18 08:27:04;;;;;;;2.88;0.40;;;13.90;98.00;;;;;;5075159;28;20020;-75
2022/09/18 08:29:30;;;;;;;2.92;0.20;;;13.80;98.00;;;;;;5075646;28;20024;-75
2022/09/18 08:31:56;;;;;;;1.85;0.35;;;13.80;98.10;;;;;;5075045;28;20025;-75
2022/09/18 08:34:21;;;;;;;2.10;0.35;;;13.80;98.30;;;;;;5075347;28;20032;-75
2022/09/18 08:36:47;;;;;;;3.92;0.55;;;13.80;98.40;;;;;;5075126;28;20131;-75
2022/09/18 08:39:13;;;;;;;4.68;0.20;;;13.80;98.30;;;;;;5075326;28;20380;-75
2022/09/18 08:41:51;;;;;;;2.85;0.30;;;13.90;98.20;;;;;;5074645;28;20468;-75
2022/09/18 08:44:27;;;;;;;4.85;0.20;;;14.00;98.20;;;;;;5075008;28;20104;-75
2022/09/18 08:47:00;;;;;;;4.35;0.40;;;14.00;98.20;;;;;;5074850;28;20494;-75
2022/09/18 08:49:41;;;;;;;2.08;0.20;;;14.10;98.20;;;;;;5074746;28;20046;-75
2022/09/18 08:52:19;;;;;;;4.10;0.22;;;14.10;98.10;;;;;;5074801;28;20020;-75
2022/09/18 08:55:11;;;;;;;2.50;0.30;;;14.10;98.30;;;;;;5074311;28;20023;-76
2022/09/18 08:57:42;;;;;;;4.57;0.32;;;14.10;98.20;;;;;;5074880;28;20024;-76
2022/09/18 09:00:18;;;;;;;3.60;0.30;;;14.10;98.30;;;;;;5074286;28;20108;-75
2022/09/18 09:02:59;;;;;;;2.88;0.40;;;14.10;98.30;;;;;;5074684;28;20036;-76
2022/09/18 09:05:36;;;;;;;3.28;0.30;;;14.20;98.40;;;;;;5074535;28;20024;-76
2022/09/18 09:08:10;;;;;;;2.38;0.30;;;14.20;98.40;;;;;;5074348;28;20376;-76
2022/09/18 09:10:35;;;;;;;5.22;0.32;;;14.20;98.40;;;;;;5074425;28;20056;-75
2022/09/18 09:13:26;;;;;;;3.70;0.30;;;14.20;98.50;;;;;;5074523;28;20048;-76
2022/09/18 09:16:03;;;;;;;2.67;0.32;;;14.30;98.50;;;;;;5074082;28;20112;-76
2022/09/18 09:18:44;;;;;;;3.97;0.40;;;14.30;98.40;;;;;;5074100;28;20108;-75
2022/09/18 09:21:21;;;;;;;3.33;0.40;;;14.30;98.30;;;;;;5074181;28;20075;-75
2022/09/18 09:24:08;;;;;;;3.58;0.38;;;14.30;98.40;;;;;;5073849;28;20032;-76
2022/09/18 09:26:35;;;;;;;4.03;0.40;;;14.40;98.50;;;;;;5074233;28;20024;-76
2022/09/18 09:29:14;;;;;;;3.83;0.28;;;14.40;98.50;;;;;;5073640;28;20404;-76
2022/09/18 09:31:45;;;;;;;4.80;0.93;;;14.40;98.50;;;;;;5074183;28;20028;-76
2022/09/18 09:34:20;;;;;;;4.15;0.30;;;14.50;98.30;;;;;;5073803;28;20025;-76
2022/09/18 09:36:49;;;;;;;6.05;0.43;;;14.50;98.50;;;;;;5073765;28;20492;-76
2022/09/18 09:39:26;;;;;;;7.78;0.50;;;14.50;98.50;;;;;;5073721;28;20024;-76
2022/09/18 09:42:15;;;;;;;2.58;0.50;;;14.50;98.50;;;;;;5073779;28;20086;-76
2022/09/18 09:44:49;;;;;;;2.67;0.45;;;14.40;98.50;;;;;;5073760;28;20020;-76
2022/09/18 09:47:26;;;;;;;4.22;0.45;;;14.40;98.60;;;;;;5073722;28;20024;-76
2022/09/18 09:50:07;;;;;;;4.80;0.50;;;14.40;98.60;;;;;;5073861;28;20107;-76
2022/09/18 09:52:36;;;;;;;9.07;0.50;;;14.40;98.70;;;;;;5073636;28;20482;-76
2022/09/18 09:55:18;;;;;;;5.55;0.82;;;14.40;98.50;;;;;;5073126;28;20020;-75
2022/09/18 09:57:43;;;;;;;4.18;0.32;;;14.40;98.60;;;;;;5073394;28;20033;-75
2022/09/18 10:00:17;;;;;;;5.15;0.43;;;14.40;98.80;;;;;;5073359;28;20032;-75
2022/09/18 10:03:01;;;;;;;2.95;0.30;;;14.30;99.00;;;;;;5073532;28;20090;-75
2022/09/18 10:05:47;;;;;;;7.15;0.55;;;14.30;99.00;;;;;;5073565;28;20029;-75
2022/09/18 10:08:15;;;;;;;2.47;0.20;;;14.40;99.10;;;;;;5073310;28;20028;-75
2022/09/18 10:10:57;;;;;;;5.88;0.50;;;14.40;99.10;;;;;;5073513;28;20035;-76
2022/09/18 10:13:28;;;;;;;2.85;0.30;;;14.40;99.20;;;;;;5073578;28;20434;-76
2022/09/18 10:16:14;;;;;;;4.05;0.50;;;14.40;99.10;;;;;;5073236;28;20027;-76
2022/09/18 10:18:43;;;;;;;3.33;0.30;;;14.40;99.00;;;;;;5073253;28;20387;-76
2022/09/18 10:21:13;;;;;;;4.93;0.40;;;14.40;98.80;;;;;;5073096;28;20036;-76
2022/09/18 10:23:48;;;;;;;2.63;0.30;;;14.40;98.90;;;;;;5073284;28;20431;-76
2022/09/18 10:26:22;;;;;;;4.75;0.43;;;14.40;98.60;;;;;;5073124;28;20032;-76
2022/09/18 10:28:47;;;;;;;2.47;0.30;;;14.40;98.90;;;;;;5072943;28;20121;-76
2022/09/18 10:31:15;;;;;;;3.10;0.40;;;14.40;98.80;;;;;;5072750;28;20024;-76
2022/09/18 10:33:43;;;;;;;3.72;0.70;;;14.50;98.90;;;;;;5072982;28;20484;-76
2022/09/18 10:36:14;;;;;;;2.45;0.30;;;14.50;98.70;;;;;;5073188;28;20025;-76
2022/09/18 10:38:39;;;;;;;6.45;0.50;;;14.50;98.60;;;;;;5072839;28;20435;-76
2022/09/18 10:41:17;;;;;;;4.30;0.40;;;14.50;98.80;;;;;;5073088;28;20100;-76
2022/09/18 10:43:52;;;;;;;4.00;0.43;;;14.50;98.80;;;;;;5072764;28;20082;-76
2022/09/18 10:46:24;;;;;;;4.93;0.75;;;14.50;98.80;;;;;;5072588;28;20029;-77
2022/09/18 10:48:50;;;;;;;4.53;0.30;;;14.60;99.00;;;;;;5073227;28;20040;-76
2022/09/18 10:51:20;;;;;;;2.40;0.40;;;14.60;98.90;;;;;;5072668;28;20111;-76
2022/09/18 10:54:03;;;;;;;6.60;0.93;;;14.70;99.00;;;;;;5072865;28;20021;-76
2022/09/18 10:56:30;;;;;;;2.95;0.22;;;14.70;98.90;;;;;;5072664;28;20048;-76
2022/09/18 10:59:07;;;;;;;3.55;0.32;;;14.70;99.00;;;;;;5072491;28;20047;-76
2022/09/18 11:01:32;;;;;;;3.33;0.30;;;14.70;98.90;;;;;;5072451;28;20036;-76
2022/09/18 11:04:04;;;;;;;3.33;0.30;;;14.70;98.70;;;;;;5072648;28;20031;-76
2022/09/18 11:06:33;;;;;;;4.45;0.40;;;14.70;98.80;;;;;;5072540;28;20028;-76
2022/09/18 11:09:01;;;;;;;2.90;0.30;;;14.60;98.60;;;;;;5072696;28;20027;-76
2022/09/18 11:11:29;;;;;;;3.33;0.30;;;14.60;98.80;;;;;;5072816;28;20028;-76
2022/09/18 11:13:59;;;;;;;2.55;0.25;;;14.60;98.90;;;;;;5072622;28;20027;-76
2022/09/18 11:16:37;;;;;;;1.98;0.30;;;14.70;98.60;;;;;;5072312;28;20025;-76
2022/09/18 11:19:28;;;;;;;6.47;0.40;;;14.60;98.70;;;;;;5075693;28;20484;-76
2022/09/18 11:21:58;;;;;;;4.25;0.40;;;14.60;98.80;;;;;;5076210;28;20042;-76
2022/09/18 11:24:32;;;;;;;2.72;0.40;;;14.60;98.40;;;;;;5076559;28;20033;-76
2022/09/18 11:27:17;;;;;;;4.53;0.30;;;14.60;98.60;;;;;;5076239;28;20032;-76
2022/09/18 11:29:42;;;;;;;4.03;0.35;;;14.60;98.80;;;;;;5076400;28;20078;-76
2022/09/18 11:32:25;;;;;;;3.60;0.35;;;14.60;99.10;;;;;;5076468;28;20028;-76
2022/09/18 11:35:00;;;;;;;4.03;0.30;;;14.60;99.10;;;;;;5075935;28;20048;-77
2022/09/18 11:37:34;;;;;;;6.78;0.40;;;14.60;98.60;;;;;;5076451;28;20036;-76
2022/09/18 11:40:21;;;;;;;4.28;0.40;;;14.60;98.50;;;;;;5076157;28;20536;-76
2022/09/18 11:42:51;;;;;;;3.22;0.30;;;14.50;98.50;;;;;;5075866;28;20045;-76
2022/09/18 11:45:26;;;;;;;2.45;0.30;;;14.50;98.30;;;;;;5075907;28;20043;-76
2022/09/18 11:48:05;;;;;;;2.92;0.30;;;14.50;98.40;;;;;;5076123;28;20112;-76
2022/09/18 11:50:33;;;;;;;4.53;0.30;;;14.50;98.50;;;;;;5075906;28;20451;-76
2022/09/18 11:53:04;;;;;;;6.88;0.30;;;14.50;98.40;;;;;;5075849;28;20032;-76
2022/09/18 11:55:35;;;;;;;4.18;0.30;;;14.50;98.50;;;;;;5075636;28;20175;-76
2022/09/18 11:58:21;;;;;;;2.45;0.20;;;14.60;98.50;;;;;;5076038;28;20032;-76
2022/09/18 12:00:56;;;;;;;4.68;0.30;;;14.50;98.40;;;;;;5075821;28;20048;-76
2022/09/18 12:03:30;;;;;;;2.45;0.22;;;14.60;98.50;;;;;;5075520;28;20043;-76
2022/09/18 12:06:38;;;;;;;2.58;0.30;;;14.50;98.40;;;;;;5076088;28;20032;-76
2022/09/18 12:09:15;;;;;;;3.47;0.30;;;14.50;98.30;;;;;;5075195;28;20052;-76
2022/09/18 12:12:28;;;;;;;5.45;0.45;;;14.50;98.30;;;;;;5075563;28;20154;-76
2022/09/18 12:15:23;;;;;;;3.93;0.40;;;14.60;98.30;;;;;;5073152;28;20029;-76
2022/09/18 12:18:13;;;;;;;3.80;0.40;;;14.60;98.20;;;;;;5075282;28;20115;-76
2022/09/18 12:20:44;;;;;;;4.68;0.82;;;14.60;98.50;;;;;;5075488;28;20024;-76
2022/09/18 12:23:15;;;;;;;3.85;0.80;;;14.60;98.30;;;;;;5074861;28;20033;-76
2022/09/18 12:25:54;;;;;;;5.57;0.40;;;14.50;98.50;;;;;;5075376;28;20036;-76
2022/09/18 12:28:29;;;;;;;3.42;0.30;;;14.50;98.50;;;;;;5075093;28;20060;-76
2022/09/18 12:31:13;;;;;;;4.75;0.50;;;14.50;98.40;;;;;;5074967;28;20098;-76
2022/09/18 12:33:45;;;;;;;5.47;0.47;;;14.50;98.60;;;;;;5075331;28;20029;-76
2022/09/18 12:36:29;;;;;;;3.63;0.30;;;14.50;98.50;;;;;;5075397;28;20110;-76
2022/09/18 12:39:19;;;;;;;3.88;0.40;;;14.50;98.60;;;;;;5075270;28;20032;-76
2022/09/18 12:42:07;;;;;;;3.63;0.60;;;14.50;98.50;;;;;;5075083;28;20373;-76
2022/09/18 12:44:58;;;;;;;4.97;0.50;;;14.50;98.40;;;;;;5074730;28;20016;-76
2022/09/18 12:47:32;;;;;;;4.63;0.40;;;14.50;98.50;;;;;;5074759;28;20038;-75
2022/09/18 12:50:16;;;;;;;4.38;0.40;;;14.50;98.50;;;;;;5073271;28;20029;-73
2022/09/18 12:53:16;;;;;;;2.55;0.40;;;14.50;98.50;;;;;;5073699;28;20031;-75
2022/09/18 12:55:56;;;;;;;5.30;0.38;;;14.60;98.60;;;;;;5074498;28;20021;-76
2022/09/18 12:58:57;;;;;;;5.20;0.35;;;14.60;98.50;;;;;;5074681;28;20032;-73
2022/09/18 13:01:48;;;;;;;4.30;0.32;;;14.60;98.50;;;;;;5018126;28;20510;-73
2022/09/18 13:04:25;;;;;;;5.60;0.45;;;14.60;98.50;;;;;;5073476;28;20032;-73
2022/09/18 13:07:34;;;;;;;3.40;0.40;;;14.60;98.60;;;;;;5072228;28;20012;-72